createdAt,value
2017-10-18T00:02:01.065Z,93.70
2017-10-18T00:04:28.497Z,93.80
2017-10-18T00:06:55.947Z,93.80
2017-10-18T00:09:23.397Z,93.70
2017-10-18T00:11:50.841Z,93.90
2017-10-18T00:14:18.281Z,94.20
2017-10-18T00:16:45.721Z,94.20
2017-10-18T00:19:13.162Z,94.30
2017-10-18T00:21:40.606Z,94.00
2017-10-18T00:24:08.806Z,94.40
2017-10-18T00:26:36.244Z,94.40
2017-10-18T00:29:04.444Z,95.10
2017-10-18T00:31:31.890Z,95.00
2017-10-18T00:33:59.327Z,95.00
2017-10-18T00:36:26.764Z,95.10
2017-10-18T00:38:54.199Z,95.30
2017-10-18T00:41:21.644Z,95.40
2017-10-18T00:43:49.070Z,95.40
2017-10-18T00:46:16.505Z,95.50
2017-10-18T00:48:43.944Z,95.30
2017-10-18T00:51:11.394Z,95.20
2017-10-18T00:53:38.825Z,94.70
2017-10-18T00:56:06.266Z,94.70
2017-10-18T00:58:33.716Z,94.50
2017-10-18T01:01:01.150Z,94.40
2017-10-18T01:03:29.351Z,94.30
2017-10-18T01:05:56.790Z,94.30
2017-10-18T01:08:24.985Z,93.90
2017-10-18T01:10:52.445Z,93.90
2017-10-18T01:13:19.886Z,93.80
2017-10-18T01:15:48.089Z,93.80
2017-10-18T01:18:15.546Z,93.80
2017-10-18T01:20:42.985Z,94.00
2017-10-18T01:23:10.425Z,94.00
2017-10-18T01:25:38.627Z,94.10
2017-10-18T01:28:06.101Z,94.10
2017-10-18T01:30:33.538Z,93.90
2017-10-18T01:33:00.982Z,93.60
2017-10-18T01:35:28.409Z,93.90
2017-10-18T01:37:55.855Z,94.00
2017-10-18T01:40:23.286Z,93.90
2017-10-18T01:42:50.725Z,94.00
2017-10-18T01:45:18.164Z,93.80
2017-10-18T01:47:45.609Z,93.90
2017-10-18T01:50:13.057Z,94.00
2017-10-18T01:55:14.250Z,94.30
2017-10-18T01:57:41.680Z,95.00
2017-10-18T02:00:09.876Z,94.90
2017-10-18T02:02:41.201Z,94.90
2017-10-18T02:05:09.403Z,95.00
2017-10-18T02:07:36.840Z,94.70
2017-10-18T02:10:05.047Z,94.70
2017-10-18T02:12:32.479Z,94.70
2017-10-18T02:14:59.896Z,94.60
2017-10-18T02:17:27.333Z,94.40
2017-10-18T02:19:54.772Z,94.50
2017-10-18T02:22:22.205Z,94.40
2017-10-18T02:24:50.408Z,94.20
2017-10-18T02:27:17.832Z,94.20
2017-10-18T02:29:46.035Z,94.30
2017-10-18T02:32:13.456Z,94.30
2017-10-18T02:34:41.667Z,94.20
2017-10-18T02:37:09.093Z,94.20
2017-10-18T02:39:37.297Z,94.30
2017-10-18T02:42:04.724Z,94.30
2017-10-18T02:44:32.941Z,94.40
2017-10-18T02:47:00.359Z,94.40
2017-10-18T02:49:27.792Z,94.40
2017-10-18T02:51:55.224Z,94.60
2017-10-18T02:54:22.675Z,94.70
2017-10-18T02:56:50.099Z,94.80
2017-10-18T02:59:17.536Z,94.90
2017-10-18T03:01:45.721Z,95.10
2017-10-18T03:04:13.156Z,95.00
2017-10-18T03:06:40.575Z,95.10
2017-10-18T03:09:07.999Z,95.00
2017-10-18T03:11:35.440Z,95.10
2017-10-18T03:14:02.860Z,95.20
2017-10-18T03:16:30.293Z,95.10
2017-10-18T03:18:57.719Z,95.30
2017-10-18T03:21:25.143Z,95.40
2017-10-18T03:23:52.590Z,95.40
2017-10-18T03:26:20.025Z,95.30
2017-10-18T03:28:47.463Z,95.40
2017-10-18T03:31:14.893Z,95.50
2017-10-18T03:33:43.095Z,95.60
2017-10-18T03:36:10.527Z,95.60
2017-10-18T03:38:37.965Z,95.50
2017-10-18T03:41:05.397Z,95.40
2017-10-18T03:43:32.854Z,95.30
2017-10-18T03:46:00.288Z,95.30
2017-10-18T03:48:27.720Z,95.30
2017-10-18T03:50:55.155Z,95.30
2017-10-18T03:53:23.347Z,95.40
2017-10-18T03:55:50.781Z,95.40
2017-10-18T03:58:18.968Z,95.40
2017-10-18T04:00:47.180Z,95.40
2017-10-18T04:03:14.623Z,95.40
2017-10-18T04:05:42.048Z,95.50
2017-10-18T04:08:10.247Z,95.50
2017-10-18T04:10:37.671Z,95.50
2017-10-18T04:13:05.876Z,96.30
2017-10-18T04:15:33.307Z,95.90
2017-10-18T04:18:02.364Z,96.30
2017-10-18T04:20:29.788Z,96.30
2017-10-18T04:22:57.230Z,96.30
2017-10-18T04:25:24.660Z,96.20
2017-10-18T04:27:52.095Z,96.20
2017-10-18T04:30:19.542Z,96.10
2017-10-18T04:32:46.970Z,96.00
2017-10-18T04:35:14.396Z,96.20
2017-10-18T04:37:42.600Z,95.90
2017-10-18T04:40:10.031Z,95.80
2017-10-18T04:42:38.233Z,95.80
2017-10-18T04:45:05.661Z,95.80
2017-10-18T04:47:33.861Z,95.70
2017-10-18T04:50:01.284Z,95.70
2017-10-18T04:52:28.723Z,95.70
2017-10-18T04:54:56.152Z,95.50
2017-10-18T04:57:23.592Z,95.60
2017-10-18T04:59:51.011Z,95.70
2017-10-18T05:02:19.256Z,95.70
2017-10-18T05:04:46.689Z,95.70
2017-10-18T05:07:14.116Z,96.30
2017-10-18T05:09:42.318Z,96.50
2017-10-18T05:12:09.755Z,96.40
2017-10-18T05:14:37.943Z,95.80
2017-10-18T05:17:05.370Z,95.80
2017-10-18T05:19:33.569Z,95.80
2017-10-18T05:22:01.012Z,95.80
2017-10-18T05:24:29.200Z,95.80
2017-10-18T05:26:56.633Z,95.80
2017-10-18T05:29:24.830Z,95.90
2017-10-18T05:31:52.261Z,95.80
2017-10-18T05:34:20.456Z,95.90
2017-10-18T05:36:47.893Z,95.80
2017-10-18T05:39:16.084Z,95.80
2017-10-18T05:41:43.511Z,95.80
2017-10-18T05:44:10.945Z,95.90
2017-10-18T05:46:38.392Z,95.90
2017-10-18T05:49:05.815Z,95.90
2017-10-18T05:51:33.254Z,96.00
2017-10-18T05:54:01.453Z,95.80
2017-10-18T05:56:28.883Z,95.80
2017-10-18T05:58:57.081Z,95.80
2017-10-18T06:01:24.515Z,95.70
2017-10-18T06:03:52.707Z,95.60
2017-10-18T06:06:20.136Z,95.60
2017-10-18T06:08:48.331Z,95.90
2017-10-18T06:11:15.760Z,95.90
2017-10-18T06:13:43.192Z,95.90
2017-10-18T06:16:10.627Z,95.80
2017-10-18T06:18:38.062Z,95.80
2017-10-18T06:21:05.497Z,95.90
2017-10-18T06:23:33.696Z,95.80
2017-10-18T06:26:04.705Z,95.80
2017-10-18T06:28:32.136Z,95.70
2017-10-18T06:30:59.567Z,96.00
2017-10-18T06:33:27.005Z,96.00
2017-10-18T06:35:54.432Z,96.10
2017-10-18T06:38:21.860Z,96.30
2017-10-18T06:40:49.294Z,96.30
2017-10-18T06:43:16.732Z,96.00
2017-10-18T06:45:44.929Z,96.20
2017-10-18T06:48:12.356Z,96.20
2017-10-18T06:50:40.552Z,96.80
2017-10-18T06:53:07.985Z,96.80
2017-10-18T06:55:36.178Z,96.90
2017-10-18T06:58:03.611Z,96.90
2017-10-18T07:00:31.804Z,96.70
2017-10-18T07:02:59.242Z,96.70
2017-10-18T07:05:27.433Z,96.90
2017-10-18T07:07:54.859Z,96.90
2017-10-18T07:10:23.051Z,96.80
2017-10-18T07:12:51.255Z,97.00
2017-10-18T07:15:18.685Z,97.00
2017-10-18T07:17:46.115Z,96.60
2017-10-18T07:20:13.545Z,96.10
2017-10-18T07:22:40.989Z,96.00
2017-10-18T07:25:08.420Z,95.80
2017-10-18T07:27:35.856Z,95.60
2017-10-18T07:30:04.055Z,95.70
2017-10-18T07:32:31.484Z,95.70
2017-10-18T07:35:00.225Z,95.90
2017-10-18T07:37:27.656Z,95.90
2017-10-18T07:39:55.090Z,95.90
2017-10-18T07:42:23.283Z,95.90
2017-10-18T07:44:50.713Z,95.80
2017-10-18T07:47:18.922Z,95.50
2017-10-18T07:49:46.357Z,95.50
2017-10-18T07:52:14.552Z,95.40
2017-10-18T07:54:41.997Z,95.40
2017-10-18T07:57:09.435Z,95.40
2017-10-18T07:59:37.656Z,95.40
2017-10-18T08:02:05.085Z,95.40
2017-10-18T08:04:32.520Z,95.50
2017-10-18T08:07:00.737Z,95.40
2017-10-18T08:09:28.169Z,95.30
2017-10-18T08:11:56.372Z,95.30
2017-10-18T08:14:23.819Z,95.30
2017-10-18T08:16:51.244Z,95.40
2017-10-18T08:19:19.454Z,94.90
2017-10-18T08:21:46.880Z,94.90
2017-10-18T08:24:15.092Z,95.20
2017-10-18T08:26:42.511Z,95.10
2017-10-18T08:29:10.721Z,95.20
2017-10-18T08:31:38.157Z,95.20
2017-10-18T08:34:05.588Z,94.60
2017-10-18T08:36:33.020Z,94.70
2017-10-18T08:39:00.465Z,94.60
2017-10-18T08:41:27.900Z,94.70
2017-10-18T08:43:55.330Z,94.60
2017-10-18T08:46:23.536Z,94.20
2017-10-18T08:48:50.974Z,94.20
2017-10-18T08:51:18.401Z,94.50
2017-10-18T08:53:45.841Z,94.50
2017-10-18T08:56:13.268Z,94.50
2017-10-18T08:58:40.705Z,94.10
2017-10-18T09:01:08.136Z,94.50
2017-10-18T09:03:36.350Z,93.90
2017-10-18T09:06:03.790Z,93.80
2017-10-18T09:08:31.221Z,94.10
2017-10-18T09:10:59.420Z,93.90
2017-10-18T09:13:26.857Z,93.90
2017-10-18T09:15:55.049Z,94.00
2017-10-18T09:18:22.484Z,94.00
2017-10-18T09:20:50.676Z,93.20
2017-10-18T09:23:18.116Z,93.20
2017-10-18T09:25:46.311Z,92.80
2017-10-18T09:28:13.746Z,92.80
2017-10-18T09:30:41.947Z,92.60
2017-10-18T09:33:09.385Z,92.60
2017-10-18T09:35:37.580Z,92.00
2017-10-18T09:38:05.021Z,92.00
2017-10-18T09:40:33.227Z,90.20
2017-10-18T09:43:00.728Z,90.20
2017-10-18T09:45:28.167Z,88.40
2017-10-18T09:47:55.609Z,84.40
2017-10-18T09:50:23.043Z,80.40
2017-10-18T09:52:50.496Z,79.50
2017-10-18T09:55:17.944Z,78.80
2017-10-18T09:57:46.137Z,72.60
2017-10-18T10:00:13.573Z,72.40
2017-10-18T10:02:41.763Z,70.30
2017-10-18T10:05:09.225Z,70.30
2017-10-18T10:07:36.660Z,70.00
2017-10-18T10:10:04.101Z,70.90
2017-10-18T10:12:32.317Z,70.40
2017-10-18T10:15:00.420Z,70.30
2017-10-18T10:17:27.831Z,68.90
2017-10-18T10:19:55.260Z,70.50
2017-10-18T10:22:23.466Z,69.60
2017-10-18T10:24:50.901Z,69.60
2017-10-18T10:27:19.104Z,68.20
2017-10-18T10:29:46.550Z,68.10
2017-10-18T10:32:13.972Z,68.60
2017-10-18T10:34:41.412Z,67.70
2017-10-18T10:37:08.845Z,64.10
2017-10-18T10:39:36.296Z,64.60
2017-10-18T10:42:03.728Z,64.00
2017-10-18T10:44:31.167Z,65.40
2017-10-18T10:46:59.364Z,71.00
2017-10-18T10:49:26.792Z,71.00
2017-10-18T10:51:54.996Z,68.60
2017-10-18T10:54:22.440Z,68.60
2017-10-18T10:56:50.637Z,71.40
2017-10-18T10:59:18.072Z,71.30
2017-10-18T11:01:45.519Z,70.00
2017-10-18T11:04:12.946Z,69.90
2017-10-18T11:06:40.372Z,70.20
2017-10-18T11:09:07.811Z,71.60
2017-10-18T11:11:35.269Z,70.70
2017-10-18T11:14:02.700Z,72.00
2017-10-18T11:16:30.893Z,72.50
2017-10-18T11:18:58.332Z,72.60
2017-10-18T11:21:26.557Z,73.40
2017-10-18T11:23:53.968Z,73.40
2017-10-18T11:26:22.164Z,75.10
2017-10-18T11:28:49.607Z,75.10
2017-10-18T11:31:17.044Z,77.00
2017-10-18T11:33:45.259Z,76.70
2017-10-18T11:36:12.684Z,76.60
2017-10-18T11:38:40.896Z,77.90
2017-10-18T11:41:08.334Z,77.90
2017-10-18T11:43:35.768Z,79.10
2017-10-18T11:46:08.548Z,79.30
2017-10-18T11:48:36.751Z,78.40
2017-10-18T11:51:05.092Z,78.40
2017-10-18T11:53:32.532Z,79.60
2017-10-18T11:55:59.963Z,83.60
2017-10-18T11:58:27.417Z,84.60
2017-10-18T12:00:54.852Z,82.90
2017-10-18T12:03:22.287Z,81.10
2017-10-18T12:05:50.486Z,80.60
2017-10-18T12:08:17.924Z,80.60
2017-10-18T12:10:46.111Z,82.30
2017-10-18T12:13:13.548Z,82.20
2017-10-18T12:15:41.753Z,81.60
2017-10-18T12:18:09.186Z,81.60
2017-10-18T12:20:37.382Z,82.50
2017-10-18T12:23:04.813Z,82.10
2017-10-18T12:25:33.024Z,83.80
2017-10-18T12:28:00.451Z,83.70
2017-10-18T12:30:28.654Z,83.90
2017-10-18T12:32:56.103Z,83.70
2017-10-18T12:35:23.537Z,85.50
2017-10-18T12:37:51.743Z,83.60
2017-10-18T12:40:19.181Z,83.60
2017-10-18T12:42:46.608Z,83.40
2017-10-18T12:45:14.045Z,82.70
2017-10-18T12:47:41.488Z,82.30
2017-10-18T12:50:08.950Z,85.80
2017-10-18T12:52:36.375Z,84.60
2017-10-18T12:55:03.815Z,82.40
2017-10-18T12:57:32.018Z,83.10
2017-10-18T12:59:59.461Z,83.00
2017-10-18T13:02:26.885Z,84.00
2017-10-18T13:04:54.312Z,82.70
2017-10-18T13:07:21.753Z,83.60
2017-10-18T13:09:49.179Z,84.70
2017-10-18T13:12:16.619Z,83.30
2017-10-18T13:14:44.819Z,83.40
2017-10-18T13:17:12.252Z,83.30
2017-10-18T13:19:40.473Z,83.70
2017-10-18T13:22:07.903Z,83.70
2017-10-18T13:24:35.335Z,84.20
2017-10-18T13:27:03.536Z,83.90
2017-10-18T13:29:30.968Z,83.90
2017-10-18T13:31:59.166Z,82.10
2017-10-18T13:34:26.608Z,82.10
2017-10-18T13:36:54.811Z,81.40
2017-10-18T13:39:22.252Z,81.30
2017-10-18T13:41:49.681Z,84.50
2017-10-18T13:44:17.879Z,83.90
2017-10-18T13:46:45.309Z,83.20
2017-10-18T13:49:12.752Z,82.90
2017-10-18T13:51:40.189Z,82.60
2017-10-18T13:54:07.622Z,86.30
2017-10-18T13:56:35.060Z,89.30
2017-10-18T13:59:02.498Z,85.50
2017-10-18T14:01:30.697Z,84.80
2017-10-18T14:03:58.132Z,84.70
2017-10-18T14:06:26.332Z,82.00
2017-10-18T14:08:53.773Z,82.00
2017-10-18T14:11:21.969Z,82.80
2017-10-18T14:13:49.417Z,83.50
2017-10-18T14:16:16.844Z,83.90
2017-10-18T14:18:44.283Z,83.00
2017-10-18T14:21:11.713Z,83.20
2017-10-18T14:23:39.165Z,83.80
2017-10-18T14:26:06.602Z,83.90
2017-10-18T14:28:34.028Z,83.30
2017-10-18T14:31:01.460Z,83.80
2017-10-18T14:33:28.889Z,84.20
2017-10-18T14:35:56.329Z,84.80
2017-10-18T14:38:23.777Z,84.10
2017-10-18T14:40:51.230Z,84.20
2017-10-18T14:43:19.417Z,85.30
2017-10-18T14:45:46.853Z,85.20
2017-10-18T14:48:15.043Z,85.10
2017-10-18T14:50:42.484Z,85.10
2017-10-18T14:53:10.681Z,86.80
2017-10-18T14:55:38.120Z,86.70
2017-10-18T14:58:06.329Z,87.30
2017-10-18T15:00:33.770Z,87.30
2017-10-18T15:03:01.200Z,88.10
2017-10-18T15:05:28.635Z,88.20
2017-10-18T15:07:56.076Z,88.10
2017-10-18T15:10:23.514Z,88.30
2017-10-18T15:12:50.940Z,88.70
2017-10-18T15:15:18.380Z,89.40
2017-10-18T15:17:46.581Z,90.20
2017-10-18T15:20:14.025Z,90.20
2017-10-18T15:22:42.229Z,90.60
2017-10-18T15:25:09.675Z,90.60
2017-10-18T15:27:37.100Z,90.90
2017-10-18T15:30:05.321Z,91.00
2017-10-18T15:32:32.753Z,91.00
2017-10-18T15:35:00.199Z,91.70
2017-10-18T15:37:28.391Z,92.10
2017-10-18T15:39:55.824Z,92.00
2017-10-18T15:42:24.021Z,92.40
2017-10-18T15:44:51.458Z,92.40
2017-10-18T15:47:19.664Z,92.70
2017-10-18T15:49:47.095Z,92.70
2017-10-18T15:52:15.299Z,92.70
2017-10-18T15:54:42.737Z,93.00
2017-10-18T15:57:10.164Z,92.50
2017-10-18T15:59:37.602Z,92.50
2017-10-18T16:02:05.046Z,92.30
2017-10-18T16:04:32.517Z,92.40
2017-10-18T16:06:59.957Z,93.00
2017-10-18T16:09:27.404Z,93.00
2017-10-18T16:11:54.835Z,92.90
2017-10-18T16:14:22.276Z,92.80
2017-10-18T16:16:50.479Z,92.90
2017-10-18T16:19:17.919Z,92.90
2017-10-18T16:21:45.356Z,93.00
2017-10-18T16:24:12.789Z,92.90
2017-10-18T16:26:40.225Z,93.00
2017-10-18T16:29:07.651Z,93.00
2017-10-18T16:31:35.088Z,93.20
2017-10-18T16:34:03.283Z,93.30
2017-10-18T16:36:30.726Z,93.30
2017-10-18T16:38:58.941Z,93.30
2017-10-18T16:41:26.379Z,93.30
2017-10-18T16:43:53.819Z,93.30
2017-10-18T16:46:22.039Z,93.50
2017-10-18T16:48:49.463Z,93.50
2017-10-18T16:51:16.888Z,93.60
2017-10-18T16:53:44.326Z,93.60
2017-10-18T16:56:11.764Z,93.60
2017-10-18T16:58:39.203Z,93.80
2017-10-18T17:01:14.474Z,94.10
2017-10-18T17:03:41.909Z,94.10
2017-10-18T17:06:09.351Z,94.10
2017-10-18T17:08:36.784Z,94.20
2017-10-18T17:11:04.988Z,94.10
2017-10-18T17:13:32.420Z,94.10
2017-10-18T17:15:59.860Z,93.90
2017-10-18T17:18:28.061Z,94.10
2017-10-18T17:20:55.504Z,94.10
2017-10-18T17:23:22.946Z,94.30
2017-10-18T17:25:50.384Z,94.20
2017-10-18T17:28:17.829Z,94.50
2017-10-18T17:30:45.260Z,94.70
2017-10-18T17:33:12.697Z,94.90
2017-10-18T17:35:40.133Z,95.00
2017-10-18T17:38:08.353Z,94.80
2017-10-18T17:40:35.781Z,94.80
2017-10-18T17:43:03.222Z,94.70
2017-10-18T17:45:31.429Z,94.50
2017-10-18T17:47:58.872Z,94.50
2017-10-18T17:50:26.306Z,94.30
2017-10-18T17:52:54.508Z,94.60
2017-10-18T17:55:21.942Z,94.60
2017-10-18T17:57:50.148Z,94.70
2017-10-18T18:00:17.576Z,94.70
2017-10-18T18:02:45.807Z,95.00
2017-10-18T18:05:13.250Z,95.00
2017-10-18T18:07:40.705Z,95.00
2017-10-18T18:10:08.147Z,94.90
2017-10-18T18:12:35.589Z,94.70
2017-10-18T18:15:03.020Z,94.80
2017-10-18T18:17:30.510Z,95.00
2017-10-18T18:19:58.709Z,94.70
2017-10-18T18:22:26.161Z,94.70
2017-10-18T18:24:53.580Z,94.80
2017-10-18T18:27:21.772Z,94.70
2017-10-18T18:29:49.262Z,95.00
2017-10-18T18:32:16.685Z,94.80
2017-10-18T18:34:44.128Z,94.50
2017-10-18T18:37:12.350Z,94.50
2017-10-18T18:39:39.793Z,94.50
2017-10-18T18:42:07.269Z,94.80
2017-10-18T18:44:34.708Z,94.70
2017-10-18T18:47:02.157Z,94.80
2017-10-18T18:49:29.589Z,94.80
2017-10-18T18:51:57.796Z,95.10
2017-10-18T18:54:25.242Z,95.10
2017-10-18T18:56:52.676Z,95.20
2017-10-18T18:59:20.889Z,95.10
2017-10-18T19:01:48.320Z,95.00
2017-10-18T19:04:15.773Z,94.80
2017-10-18T19:06:43.217Z,94.60
2017-10-18T19:09:11.424Z,95.00
2017-10-18T19:11:38.844Z,94.70
2017-10-18T19:14:07.061Z,95.00
2017-10-18T19:16:34.518Z,94.90
2017-10-18T19:19:01.980Z,94.80
2017-10-18T19:21:29.413Z,94.80
2017-10-18T19:23:56.852Z,94.70
2017-10-18T19:26:25.092Z,94.70
2017-10-18T19:28:52.549Z,94.70
2017-10-18T19:31:19.999Z,94.40
2017-10-18T19:33:47.476Z,94.20
2017-10-18T19:36:14.908Z,94.50
2017-10-18T19:38:42.365Z,94.50
2017-10-18T19:41:09.805Z,94.50
2017-10-18T19:43:37.261Z,94.60
2017-10-18T19:46:04.695Z,94.70
2017-10-18T19:48:32.120Z,94.80
2017-10-18T19:50:59.556Z,94.90
2017-10-18T19:53:27.001Z,94.90
2017-10-18T19:55:54.446Z,95.00
2017-10-18T19:58:21.903Z,94.90
2017-10-18T20:00:49.346Z,95.00
2017-10-18T20:03:16.785Z,95.00
2017-10-18T20:05:44.980Z,95.30
2017-10-18T20:08:12.413Z,95.20
2017-10-18T20:10:40.622Z,95.60
2017-10-18T20:13:08.049Z,95.60
2017-10-18T20:15:36.308Z,95.50
2017-10-18T20:18:03.741Z,95.50
2017-10-18T20:20:33.159Z,95.40
2017-10-18T20:23:00.597Z,95.30
2017-10-18T20:25:28.037Z,95.30
2017-10-18T20:27:55.472Z,95.30
2017-10-18T20:30:29.533Z,95.30
2017-10-18T20:32:56.958Z,95.40
2017-10-18T20:35:24.403Z,95.30
2017-10-18T20:37:51.837Z,95.00
2017-10-18T20:40:20.050Z,95.10
2017-10-18T20:42:47.477Z,95.10
2017-10-18T20:45:14.924Z,95.10
2017-10-18T20:47:42.364Z,95.30
2017-10-18T20:50:09.791Z,95.20
2017-10-18T20:52:37.240Z,94.90
2017-10-18T20:55:04.687Z,95.00
2017-10-18T20:57:32.116Z,95.00
2017-10-18T20:59:59.543Z,94.90
2017-10-18T21:02:26.976Z,94.90
2017-10-18T21:04:54.413Z,95.00
2017-10-18T21:07:21.851Z,94.90
2017-10-18T21:09:49.307Z,95.00
2017-10-18T21:12:17.496Z,95.10
2017-10-18T21:14:44.929Z,95.10
2017-10-18T21:17:12.355Z,94.90
2017-10-18T21:19:39.795Z,95.10
2017-10-18T21:22:07.240Z,95.30
2017-10-18T21:24:34.680Z,95.10
2017-10-18T21:27:02.121Z,95.00
2017-10-18T21:29:29.757Z,95.40
2017-10-18T21:31:57.986Z,95.40
2017-10-18T21:34:25.402Z,95.40
2017-10-18T21:36:53.608Z,95.40
2017-10-18T21:39:21.045Z,95.40
2017-10-18T21:41:48.480Z,95.50
2017-10-18T21:44:16.686Z,95.30
2017-10-18T21:46:44.116Z,95.20
2017-10-18T21:49:12.332Z,95.40
2017-10-18T21:51:39.779Z,95.40
2017-10-18T21:54:07.203Z,95.30
2017-10-18T21:56:35.416Z,95.40
2017-10-18T21:59:02.853Z,95.40
2017-10-18T22:01:30.287Z,95.40
2017-10-18T22:03:57.724Z,95.30
2017-10-18T22:06:25.168Z,95.30
2017-10-18T22:08:52.604Z,95.10
2017-10-18T22:11:20.033Z,95.10
2017-10-18T22:13:47.460Z,95.00
2017-10-18T22:16:18.194Z,94.70
2017-10-18T22:18:46.395Z,94.80
2017-10-18T22:21:13.822Z,94.50
2017-10-18T22:23:41.256Z,94.30
2017-10-18T22:26:08.695Z,94.40
2017-10-18T22:28:36.144Z,94.50
2017-10-18T22:31:03.582Z,94.70
2017-10-18T22:33:31.017Z,94.50
2017-10-18T22:35:59.226Z,94.60
2017-10-18T22:38:26.658Z,94.60
2017-10-18T22:40:54.851Z,94.70
2017-10-18T22:43:22.280Z,94.70
2017-10-18T22:45:50.511Z,94.70
2017-10-18T22:48:17.950Z,94.70
2017-10-18T22:50:45.380Z,94.70
2017-10-18T22:53:12.826Z,95.10
2017-10-18T22:55:41.017Z,94.80
2017-10-18T22:58:08.453Z,94.80
2017-10-18T23:00:36.652Z,94.40
2017-10-18T23:03:04.082Z,94.40
2017-10-18T23:05:32.283Z,94.80
2017-10-18T23:07:59.720Z,94.80
2017-10-18T23:10:27.915Z,94.60
2017-10-18T23:12:55.353Z,94.50
2017-10-18T23:15:23.563Z,94.60
2017-10-18T23:17:51.004Z,94.60
2017-10-18T23:20:18.439Z,94.70
2017-10-18T23:22:46.661Z,95.00
2017-10-18T23:25:14.090Z,95.00
2017-10-18T23:27:41.515Z,95.00
2017-10-18T23:30:09.775Z,94.70
2017-10-18T23:32:37.217Z,94.70
2017-10-18T23:35:04.655Z,94.80
2017-10-18T23:37:32.087Z,94.90
2017-10-18T23:39:59.537Z,95.00
2017-10-18T23:42:26.968Z,95.00
2017-10-18T23:44:54.401Z,95.10
2017-10-18T23:47:21.844Z,95.00
2017-10-18T23:49:49.270Z,94.80
2017-10-18T23:52:16.707Z,94.70
2017-10-18T23:54:44.908Z,94.50
2017-10-18T23:57:12.341Z,94.50
2017-10-18T23:59:40.546Z,94.30
